Terminal Aerodrome Forecast
Issued by NWS

Home | Current Version | Previous Version | Text Only | Print | Product List | Glossary On
Versions: 1 2 3 4 5 6 7 8 9 10 11 12 13 14
122
FTUS41 KPBZ 191720
TAFFKL
TAF
KFKL 191720Z 1918/2018 27010G18KT P6SM SCT040
     FM192000 25010KT P6SM VCTS BKN040CB
      TEMPO 1920/1921 5SM -TSRA BKN035CB
     FM200000 28005KT P6SM SCT040
     FM200900 00000KT 3SM BR SCT004
     FM201200 22004KT 1SM BR SCT004
     FM201400 VRB04KT P6SM SKC
      AMD LTD TO CLD VIS AND WIND=

USA.gov is the U.S. government's official web portal to all federal, state and local government web resources and services.